createdAt,value
2023-07-06T00:00:08.874Z,71.40
2023-07-06T00:02:04.256Z,71.20
2023-07-06T00:03:09.000Z,72.20
2023-07-06T00:04:07.480Z,71.90
2023-07-06T00:05:11.688Z,67.50
2023-07-06T00:06:04.180Z,65.00
2023-07-06T00:07:03.896Z,71.90
2023-07-06T00:08:03.508Z,71.40
2023-07-06T00:09:07.305Z,71.80
2023-07-06T00:10:07.335Z,72.60
2023-07-06T00:12:07.304Z,71.10
2023-07-06T00:13:07.262Z,72.00
2023-07-06T00:15:04.533Z,71.70
2023-07-06T00:16:07.380Z,71.20
2023-07-06T00:17:03.904Z,68.70
2023-07-06T00:18:07.398Z,70.10
2023-07-06T00:20:04.127Z,71.30
2023-07-06T00:21:03.789Z,71.10
2023-07-06T00:22:07.313Z,70.70
2023-07-06T00:23:07.302Z,71.70
2023-07-06T00:25:04.464Z,72.00
2023-07-06T00:26:07.331Z,73.70
2023-07-06T00:28:04.451Z,73.80
2023-07-06T00:29:07.320Z,72.50
2023-07-06T00:31:07.360Z,72.10
2023-07-06T00:33:03.647Z,73.00
2023-07-06T00:34:07.356Z,72.40
2023-07-06T00:36:04.282Z,72.50
2023-07-06T00:37:03.857Z,72.80
2023-07-06T00:38:04.503Z,73.50
2023-07-06T00:39:04.391Z,72.50
2023-07-06T00:40:09.059Z,69.60
2023-07-06T00:41:08.712Z,67.00
2023-07-06T00:42:09.373Z,67.40
2023-07-06T00:43:07.282Z,72.10
2023-07-06T00:45:04.295Z,69.30
2023-07-06T00:46:08.982Z,66.70
2023-07-06T00:48:03.836Z,67.90
2023-07-06T00:49:07.510Z,68.50
2023-07-06T00:52:04.266Z,68.50
2023-07-06T00:54:03.611Z,68.30
2023-07-06T00:55:07.317Z,69.90
2023-07-06T00:56:07.369Z,69.20
2023-07-06T00:58:03.612Z,69.10
2023-07-06T00:59:07.376Z,69.50
2023-07-06T01:01:08.705Z,69.30
2023-07-06T01:02:04.212Z,69.40
2023-07-06T01:04:07.353Z,70.90
2023-07-06T01:06:03.656Z,71.50
2023-07-06T01:07:07.298Z,71.30
2023-07-06T01:08:03.786Z,70.70
2023-07-06T01:09:07.337Z,72.40
2023-07-06T01:11:07.349Z,70.40
2023-07-06T01:13:07.355Z,70.20
2023-07-06T01:14:03.990Z,69.90
2023-07-06T01:15:04.047Z,70.50
2023-07-06T01:17:07.353Z,70.20
2023-07-06T01:18:13.956Z,69.80
2023-07-06T01:21:04.149Z,70.20
2023-07-06T01:23:04.376Z,70.00
2023-07-06T01:24:04.052Z,70.10
2023-07-06T01:26:04.338Z,70.10
2023-07-06T01:27:11.812Z,70.50
2023-07-06T01:29:07.463Z,70.40
2023-07-06T01:31:03.661Z,70.80
2023-07-06T01:32:04.333Z,70.80
2023-07-06T01:33:03.877Z,70.50
2023-07-06T01:34:03.598Z,70.30
2023-07-06T01:35:07.349Z,70.20
2023-07-06T01:36:07.370Z,70.40
2023-07-06T01:38:07.382Z,70.30
2023-07-06T01:39:07.420Z,70.20
2023-07-06T01:40:07.374Z,73.80
2023-07-06T01:41:07.417Z,73.20
2023-07-06T01:42:09.053Z,72.40
2023-07-06T01:43:03.542Z,71.90
2023-07-06T01:44:04.149Z,73.20
2023-07-06T01:45:03.875Z,73.60
2023-07-06T01:46:03.530Z,76.00
2023-07-06T01:47:04.404Z,73.10
2023-07-06T01:48:14.180Z,70.30
2023-07-06T01:50:07.399Z,76.00
2023-07-06T01:51:07.422Z,76.90
2023-07-06T01:52:03.910Z,71.30
2023-07-06T01:53:03.540Z,74.30
2023-07-06T01:54:04.306Z,73.30
2023-07-06T01:55:07.366Z,72.40
2023-07-06T01:57:03.891Z,73.90
2023-07-06T01:58:08.657Z,72.30
2023-07-06T02:00:07.374Z,73.50
2023-07-06T02:02:03.657Z,73.80
2023-07-06T02:03:04.360Z,73.30
2023-07-06T02:04:04.427Z,75.10
2023-07-06T02:05:04.012Z,73.70
2023-07-06T02:06:03.765Z,73.60
2023-07-06T02:07:04.472Z,74.60
2023-07-06T02:08:07.415Z,74.90
2023-07-06T02:10:08.765Z,73.50
2023-07-06T02:12:03.683Z,74.70
2023-07-06T02:13:04.539Z,74.80
2023-07-06T02:14:07.466Z,76.20
2023-07-06T02:16:03.542Z,75.40
2023-07-06T02:17:04.382Z,77.90
2023-07-06T02:18:04.056Z,75.00
2023-07-06T02:19:18.423Z,74.80
2023-07-06T02:21:07.438Z,75.20
2023-07-06T02:22:03.904Z,72.10
2023-07-06T02:23:07.414Z,75.40
2023-07-06T02:24:03.940Z,72.50
2023-07-06T02:25:03.550Z,75.30
2023-07-06T02:26:04.229Z,75.20
2023-07-06T02:27:07.452Z,77.10
2023-07-06T02:28:03.867Z,76.60
2023-07-06T02:29:07.404Z,79.60
2023-07-06T02:30:03.806Z,79.10
2023-07-06T02:31:07.517Z,78.60
2023-07-06T02:32:07.400Z,79.50
2023-07-06T02:33:07.392Z,78.40
2023-07-06T02:35:04.152Z,79.20
2023-07-06T02:36:03.736Z,79.60
2023-07-06T02:37:04.410Z,77.00
2023-07-06T02:39:08.778Z,73.40
2023-07-06T02:41:04.321Z,78.70
2023-07-06T02:42:09.136Z,74.00
2023-07-06T02:43:03.603Z,72.80
2023-07-06T02:44:07.411Z,78.80
2023-07-06T02:45:07.414Z,77.80
2023-07-06T02:46:07.577Z,78.90
2023-07-06T02:48:07.607Z,77.80
2023-07-06T02:49:04.225Z,75.70
2023-07-06T02:51:04.208Z,79.50
2023-07-06T02:52:03.868Z,76.20
2023-07-06T02:53:03.490Z,74.90
2023-07-06T02:54:04.423Z,78.60
2023-07-06T02:55:04.026Z,78.80
2023-07-06T02:56:07.804Z,77.60
2023-07-06T02:57:07.478Z,76.70
2023-07-06T02:58:07.450Z,77.60
2023-07-06T03:00:07.475Z,75.60
2023-07-06T03:01:03.914Z,75.80
2023-07-06T03:02:03.860Z,74.60
2023-07-06T03:03:03.580Z,75.00
2023-07-06T03:04:04.185Z,74.50
2023-07-06T03:05:03.752Z,74.40
2023-07-06T03:06:04.449Z,74.70
2023-07-06T03:07:04.184Z,75.20
2023-07-06T03:08:07.443Z,74.10
2023-07-06T03:09:03.928Z,73.00
2023-07-06T03:10:14.182Z,74.60
2023-07-06T03:12:04.436Z,75.40
2023-07-06T03:13:07.470Z,73.60
2023-07-06T03:14:04.284Z,74.90
2023-07-06T03:15:04.146Z,75.20
2023-07-06T03:16:08.945Z,74.30
2023-07-06T03:17:03.574Z,74.60
2023-07-06T03:18:07.468Z,74.00
2023-07-06T03:19:07.456Z,78.80
2023-07-06T03:21:03.586Z,75.50
2023-07-06T03:22:09.371Z,74.70
2023-07-06T03:23:03.870Z,75.30
2023-07-06T03:24:03.551Z,81.70
2023-07-06T03:25:04.252Z,77.20
2023-07-06T03:26:07.491Z,77.10
2023-07-06T03:28:03.696Z,75.00
2023-07-06T03:29:15.491Z,75.00
2023-07-06T03:30:08.889Z,74.40
2023-07-06T03:31:04.392Z,74.20
2023-07-06T03:32:04.082Z,74.30
2023-07-06T03:33:07.609Z,75.10
2023-07-06T03:35:03.753Z,75.30
2023-07-06T03:36:04.329Z,75.10
2023-07-06T03:37:04.062Z,81.40
2023-07-06T03:39:07.468Z,79.70
2023-07-06T03:40:07.497Z,76.70
2023-07-06T03:42:03.744Z,78.80
2023-07-06T03:43:04.367Z,78.40
2023-07-06T03:44:07.506Z,77.00
2023-07-06T03:46:03.773Z,78.90
2023-07-06T03:47:03.449Z,80.50
2023-07-06T03:48:11.731Z,76.00
2023-07-06T03:50:04.032Z,78.00
2023-07-06T03:51:03.613Z,77.40
2023-07-06T03:52:04.239Z,77.10
2023-07-06T03:54:08.038Z,77.00
2023-07-06T03:55:03.585Z,76.70
2023-07-06T03:56:04.302Z,77.90
2023-07-06T03:57:03.938Z,77.90
2023-07-06T03:58:07.235Z,77.90
2023-07-06T03:59:07.502Z,78.80
2023-07-06T04:01:03.793Z,78.10
2023-07-06T04:02:04.036Z,77.50
2023-07-06T04:03:03.790Z,78.20
2023-07-06T04:04:03.552Z,78.20
2023-07-06T04:05:04.210Z,77.60
2023-07-06T04:06:07.688Z,75.70
2023-07-06T04:07:04.154Z,76.10
2023-07-06T04:08:03.855Z,76.80
2023-07-06T04:09:03.449Z,76.90
2023-07-06T04:10:04.102Z,76.90
2023-07-06T04:11:03.889Z,77.00
2023-07-06T04:12:07.539Z,74.80
2023-07-06T04:13:04.018Z,74.40
2023-07-06T04:14:03.786Z,74.30
2023-07-06T04:15:03.419Z,73.60
2023-07-06T04:16:07.680Z,73.10
2023-07-06T04:17:04.242Z,73.10
2023-07-06T04:18:04.026Z,73.10
2023-07-06T04:20:04.356Z,72.30
2023-07-06T04:21:03.966Z,72.10
2023-07-06T04:22:07.522Z,71.10
2023-07-06T04:24:03.828Z,71.00
2023-07-06T04:25:04.260Z,73.70
2023-07-06T04:27:03.652Z,68.90
2023-07-06T04:28:04.387Z,68.80
2023-07-06T04:29:03.975Z,68.40
2023-07-06T04:30:11.157Z,66.60
2023-07-06T04:32:04.347Z,67.00
2023-07-06T04:33:07.525Z,65.10
2023-07-06T04:34:04.073Z,64.80
2023-07-06T04:35:15.976Z,64.20
2023-07-06T04:37:04.093Z,63.10
2023-07-06T04:38:08.683Z,62.40
2023-07-06T04:39:04.176Z,62.30
2023-07-06T04:40:07.536Z,68.60
2023-07-06T04:41:07.554Z,70.10
2023-07-06T04:42:07.564Z,65.00
2023-07-06T04:43:09.158Z,62.90
2023-07-06T04:44:03.668Z,63.00
2023-07-06T04:45:07.111Z,67.70
2023-07-06T04:47:11.417Z,62.30
2023-07-06T04:49:07.561Z,64.10
2023-07-06T04:50:07.526Z,64.00
2023-07-06T04:51:07.598Z,63.70
2023-07-06T04:52:07.553Z,63.00
2023-07-06T04:53:04.120Z,61.40
2023-07-06T04:54:08.780Z,61.30
2023-07-06T04:56:07.574Z,62.00
2023-07-06T04:57:07.564Z,62.10
2023-07-06T04:58:04.085Z,58.10
2023-07-06T04:59:03.636Z,60.40
2023-07-06T05:00:04.233Z,59.60
2023-07-06T05:01:09.086Z,56.30
2023-07-06T05:03:07.830Z,58.40
2023-07-06T05:04:10.621Z,58.00
2023-07-06T05:07:04.284Z,60.00
2023-07-06T05:09:04.448Z,60.40
2023-07-06T05:10:04.059Z,57.80
2023-07-06T05:11:07.602Z,58.40
2023-07-06T05:12:07.583Z,56.10
2023-07-06T05:14:03.789Z,55.60
2023-07-06T05:15:03.496Z,56.10
2023-07-06T05:16:07.584Z,56.20
2023-07-06T05:18:04.079Z,54.80
2023-07-06T05:19:07.571Z,55.70
2023-07-06T05:20:07.642Z,56.00
2023-07-06T05:21:04.131Z,54.50
2023-07-06T05:23:07.610Z,57.30
2023-07-06T05:25:07.573Z,58.20
2023-07-06T05:27:03.623Z,58.60
2023-07-06T05:28:04.343Z,57.20
2023-07-06T05:29:09.050Z,55.30
2023-07-06T05:31:04.756Z,59.60
2023-07-06T05:32:04.387Z,58.30
2023-07-06T05:33:04.113Z,58.40
2023-07-06T05:34:03.841Z,58.60
2023-07-06T05:35:03.505Z,57.60
2023-07-06T05:36:04.098Z,57.40
2023-07-06T05:37:08.814Z,56.10
2023-07-06T05:38:04.316Z,55.80
2023-07-06T05:40:07.797Z,57.00
2023-07-06T05:41:04.268Z,55.50
2023-07-06T05:42:03.929Z,56.50
2023-07-06T05:44:04.185Z,55.10
2023-07-06T05:45:03.722Z,55.70
2023-07-06T05:46:04.423Z,56.70
2023-07-06T05:47:11.211Z,53.90
2023-07-06T05:49:07.581Z,55.80
2023-07-06T05:51:03.732Z,55.60
2023-07-06T05:52:11.845Z,53.70
2023-07-06T05:54:07.343Z,53.30
2023-07-06T05:55:07.619Z,55.10
2023-07-06T05:56:04.072Z,53.10
2023-07-06T05:57:07.579Z,52.10
2023-07-06T05:58:07.634Z,54.40
2023-07-06T06:00:07.637Z,52.60
2023-07-06T06:01:07.659Z,54.30
2023-07-06T06:02:09.399Z,50.30
2023-07-06T06:04:08.983Z,50.20
2023-07-06T06:06:04.154Z,47.60
2023-07-06T06:07:07.688Z,50.30
2023-07-06T06:09:08.853Z,49.00
2023-07-06T06:10:14.830Z,47.60
2023-07-06T06:12:04.079Z,50.40
2023-07-06T06:13:03.751Z,50.30
2023-07-06T06:14:04.461Z,49.60
2023-07-06T06:15:04.204Z,50.40
2023-07-06T06:16:07.620Z,50.50
2023-07-06T06:18:03.880Z,49.00
2023-07-06T06:19:07.622Z,49.50
2023-07-06T06:20:07.725Z,49.40
2023-07-06T06:21:04.280Z,48.30
2023-07-06T06:23:04.129Z,45.70
2023-07-06T06:24:07.648Z,48.30
2023-07-06T06:25:07.663Z,47.90
2023-07-06T06:26:07.635Z,49.10
2023-07-06T06:28:07.642Z,48.90
2023-07-06T06:29:07.657Z,49.50
2023-07-06T06:30:09.167Z,46.30
2023-07-06T06:31:03.571Z,45.00
2023-07-06T06:32:07.777Z,47.40
2023-07-06T06:34:09.404Z,46.00
2023-07-06T06:35:03.899Z,45.60
2023-07-06T06:36:03.463Z,46.40
2023-07-06T06:37:04.063Z,46.60
2023-07-06T06:38:03.650Z,46.50
2023-07-06T06:39:04.210Z,47.10
2023-07-06T06:40:03.913Z,47.50
2023-07-06T06:41:07.648Z,47.20
2023-07-06T06:42:07.670Z,49.60
2023-07-06T06:43:11.803Z,43.50
2023-07-06T06:45:09.124Z,44.10
2023-07-06T06:46:11.258Z,46.00
2023-07-06T06:47:05.265Z,43.50
2023-07-06T06:48:04.071Z,46.00
2023-07-06T06:49:07.684Z,46.90
2023-07-06T06:51:07.617Z,47.50
2023-07-06T06:52:07.629Z,47.00
2023-07-06T06:53:04.101Z,46.80
2023-07-06T06:54:03.713Z,48.20
2023-07-06T06:55:07.744Z,47.00
2023-07-06T06:56:09.422Z,46.20
2023-07-06T06:57:03.931Z,46.20
2023-07-06T06:58:07.575Z,46.80
2023-07-06T07:00:03.986Z,46.20
2023-07-06T07:01:07.780Z,46.30
2023-07-06T07:03:07.698Z,45.20
2023-07-06T07:04:07.748Z,45.50
2023-07-06T07:05:04.364Z,44.70
2023-07-06T07:06:04.118Z,45.40
2023-07-06T07:07:08.797Z,44.10
2023-07-06T07:08:04.320Z,45.10
2023-07-06T07:09:03.914Z,44.60
2023-07-06T07:10:03.566Z,45.10
2023-07-06T07:11:24.002Z,43.90
2023-07-06T07:12:04.072Z,44.10
2023-07-06T07:13:03.747Z,32.10
2023-07-06T07:14:04.598Z,43.50
2023-07-06T07:15:07.690Z,44.40
2023-07-06T07:16:04.299Z,44.60
2023-07-06T07:17:04.093Z,44.70
2023-07-06T07:18:11.474Z,44.50
2023-07-06T07:20:04.128Z,44.30
2023-07-06T07:21:04.146Z,45.80
2023-07-06T07:22:03.752Z,44.60
2023-07-06T07:23:07.675Z,43.20
2023-07-06T07:24:04.200Z,43.20
2023-07-06T07:26:03.476Z,44.30
2023-07-06T07:27:07.675Z,46.40
2023-07-06T07:30:04.397Z,43.70
2023-07-06T07:31:07.790Z,43.90
2023-07-06T07:32:07.709Z,43.00
2023-07-06T07:33:07.722Z,42.60
2023-07-06T07:34:07.694Z,43.40
2023-07-06T07:35:07.792Z,42.90
2023-07-06T07:36:04.351Z,43.70
2023-07-06T07:37:09.074Z,43.20
2023-07-06T07:39:09.069Z,43.20
2023-07-06T07:40:03.571Z,43.10
2023-07-06T07:41:07.769Z,43.20
2023-07-06T07:43:10.361Z,41.40
2023-07-06T07:45:07.537Z,41.40
2023-07-06T07:46:07.843Z,41.70
2023-07-06T07:47:04.341Z,41.50
2023-07-06T07:48:03.977Z,41.60
2023-07-06T07:49:04.585Z,43.10
2023-07-06T07:50:09.466Z,42.80
2023-07-06T07:51:03.986Z,42.80
2023-07-06T07:52:03.533Z,42.50
2023-07-06T07:53:04.192Z,42.70
2023-07-06T07:54:03.887Z,41.60
2023-07-06T07:56:04.058Z,43.80
2023-07-06T07:58:04.221Z,44.00
2023-07-06T07:59:03.846Z,42.70
2023-07-06T08:00:07.550Z,41.80
2023-07-06T08:02:03.915Z,41.40
2023-07-06T08:03:03.569Z,42.30
2023-07-06T08:04:09.493Z,42.50
2023-07-06T08:05:04.024Z,42.40
2023-07-06T08:06:03.636Z,42.40
2023-07-06T08:07:04.264Z,42.20
2023-07-06T08:08:03.922Z,41.80
2023-07-06T08:10:09.235Z,41.70
2023-07-06T08:11:03.666Z,42.70
2023-07-06T08:12:04.314Z,41.90
2023-07-06T08:13:07.698Z,42.80
2023-07-06T08:14:09.407Z,42.60
2023-07-06T08:16:03.813Z,41.90
2023-07-06T08:17:04.522Z,42.00
2023-07-06T08:18:04.119Z,42.30
2023-07-06T08:19:38.025Z,42.00
2023-07-06T08:20:45.470Z,42.80
2023-07-06T08:22:00.635Z,41.50
2023-07-06T08:22:09.847Z,42.20
2023-07-06T08:23:07.553Z,42.60
2023-07-06T08:25:07.811Z,42.10
2023-07-06T08:27:04.190Z,41.60
2023-07-06T08:28:03.817Z,41.80
2023-07-06T08:29:04.505Z,41.40
2023-07-06T08:30:07.835Z,41.00
2023-07-06T08:31:07.863Z,41.50
2023-07-06T08:33:07.628Z,42.80
2023-07-06T08:35:09.304Z,41.70
2023-07-06T08:36:07.729Z,40.90
2023-07-06T08:37:04.216Z,41.20
2023-07-06T08:38:04.310Z,41.00
2023-07-06T08:39:03.911Z,41.00
2023-07-06T08:40:03.702Z,40.80
2023-07-06T08:41:03.553Z,41.60
2023-07-06T08:42:04.314Z,42.50
2023-07-06T08:43:09.036Z,42.20
2023-07-06T08:44:04.206Z,42.70
2023-07-06T08:45:08.974Z,41.80
2023-07-06T08:46:09.627Z,42.80
2023-07-06T08:47:04.319Z,43.00
2023-07-06T08:48:04.062Z,41.70
2023-07-06T08:49:03.952Z,42.10
2023-07-06T08:50:03.663Z,43.30
2023-07-06T08:51:04.280Z,43.20
2023-07-06T08:52:04.307Z,43.10
2023-07-06T08:53:03.937Z,41.70
2023-07-06T08:54:07.646Z,43.60
2023-07-06T08:55:04.155Z,43.20
2023-07-06T08:56:03.722Z,43.80
2023-07-06T08:57:04.447Z,44.40
2023-07-06T08:58:04.119Z,43.00
2023-07-06T09:00:07.782Z,44.20
2023-07-06T09:01:04.468Z,41.80
2023-07-06T09:02:04.141Z,42.00
2023-07-06T09:03:03.897Z,42.50
2023-07-06T09:04:07.711Z,41.00
2023-07-06T09:05:04.215Z,41.00
2023-07-06T09:06:03.751Z,41.40
2023-07-06T09:07:03.903Z,43.00
2023-07-06T09:08:03.604Z,41.90
2023-07-06T09:09:07.757Z,41.20
2023-07-06T09:10:23.057Z,41.30
2023-07-06T09:12:07.780Z,41.90
2023-07-06T09:13:04.359Z,42.50
2023-07-06T09:14:09.117Z,42.90
2023-07-06T09:16:03.492Z,43.70
2023-07-06T09:17:04.294Z,41.90
2023-07-06T09:18:07.837Z,40.60
2023-07-06T09:19:07.800Z,40.80
2023-07-06T09:21:03.916Z,41.70
2023-07-06T09:22:03.616Z,40.10
2023-07-06T09:23:04.223Z,39.80
2023-07-06T09:24:03.843Z,41.50
2023-07-06T09:25:07.825Z,41.60
2023-07-06T09:27:04.280Z,41.30
2023-07-06T09:29:03.652Z,40.80
2023-07-06T09:30:04.303Z,41.70
2023-07-06T09:32:08.874Z,39.30
2023-07-06T09:34:07.935Z,38.60
2023-07-06T09:36:04.140Z,39.10
2023-07-06T09:38:04.497Z,41.30
2023-07-06T09:39:04.223Z,40.20
2023-07-06T09:40:03.723Z,42.00
2023-07-06T09:41:07.808Z,39.60
2023-07-06T09:42:07.820Z,38.60
2023-07-06T09:43:07.814Z,39.00
2023-07-06T09:44:04.359Z,39.10
2023-07-06T09:45:04.026Z,38.50
2023-07-06T09:47:04.317Z,40.00
2023-07-06T09:49:03.804Z,40.90
2023-07-06T09:50:08.609Z,39.90
2023-07-06T09:51:04.013Z,39.50
2023-07-06T09:52:03.571Z,39.30
2023-07-06T09:53:07.805Z,39.90
2023-07-06T09:55:09.060Z,38.90
2023-07-06T09:56:03.536Z,38.30
2023-07-06T09:57:04.124Z,39.50
2023-07-06T09:58:07.832Z,39.90
2023-07-06T09:59:04.389Z,39.70
2023-07-06T10:00:04.033Z,39.60
2023-07-06T10:01:07.739Z,39.90
2023-07-06T10:03:07.935Z,39.40
2023-07-06T10:05:04.286Z,40.50
2023-07-06T10:07:07.685Z,38.80
2023-07-06T10:09:03.981Z,39.70
2023-07-06T10:10:08.637Z,40.10
2023-07-06T10:12:03.935Z,39.30
2023-07-06T10:13:07.690Z,38.90
2023-07-06T10:14:07.897Z,38.20
2023-07-06T10:15:07.671Z,38.50
2023-07-06T10:16:07.857Z,38.50
2023-07-06T10:18:04.176Z,38.80
2023-07-06T10:19:03.876Z,38.80
2023-07-06T10:20:03.472Z,38.70
2023-07-06T10:21:07.823Z,37.40
2023-07-06T10:23:07.849Z,36.70
2023-07-06T10:24:07.849Z,37.20
2023-07-06T10:25:07.861Z,36.70
2023-07-06T10:26:05.181Z,37.20
2023-07-06T10:28:08.690Z,36.20
2023-07-06T10:30:03.896Z,36.90
2023-07-06T10:32:04.437Z,38.20
2023-07-06T10:33:09.369Z,37.50
2023-07-06T10:34:03.854Z,37.40
2023-07-06T10:35:07.536Z,36.60
2023-07-06T10:36:07.850Z,35.90
2023-07-06T10:38:08.795Z,35.20
2023-07-06T10:40:04.014Z,36.30
2023-07-06T10:41:03.708Z,36.00
2023-07-06T10:42:04.388Z,36.20
2023-07-06T10:43:03.915Z,35.80
2023-07-06T10:44:03.483Z,36.10
2023-07-06T10:45:04.184Z,34.60
2023-07-06T10:46:08.934Z,33.90
2023-07-06T10:48:04.251Z,34.50
2023-07-06T10:49:03.842Z,34.40
2023-07-06T10:50:04.450Z,34.80
2023-07-06T10:51:04.021Z,35.30
2023-07-06T10:52:07.638Z,34.70
2023-07-06T10:55:03.493Z,34.50
2023-07-06T10:56:07.880Z,35.60
2023-07-06T10:58:09.312Z,36.70
2023-07-06T10:59:03.776Z,36.90
2023-07-06T11:00:04.375Z,36.80
2023-07-06T11:01:04.005Z,36.80
2023-07-06T11:02:03.625Z,37.20
2023-07-06T11:03:04.351Z,37.70
2023-07-06T11:04:04.362Z,36.60
2023-07-06T11:05:07.922Z,36.80
2023-07-06T11:06:07.983Z,36.60
2023-07-06T11:07:11.084Z,37.10
2023-07-06T11:08:03.632Z,36.90
2023-07-06T11:09:04.340Z,36.50
2023-07-06T11:10:11.862Z,36.90
2023-07-06T11:11:14.599Z,36.60
2023-07-06T11:12:04.099Z,36.60
2023-07-06T11:13:03.727Z,36.80
2023-07-06T11:14:09.596Z,37.50
2023-07-06T11:16:07.921Z,37.00
2023-07-06T11:17:03.744Z,37.10
2023-07-06T11:18:04.605Z,37.10
2023-07-06T11:19:07.925Z,38.10
2023-07-06T11:21:04.259Z,39.40
2023-07-06T11:22:03.881Z,38.30
2023-07-06T11:23:07.581Z,38.00
2023-07-06T11:24:08.016Z,39.30
2023-07-06T11:25:07.698Z,39.60
2023-07-06T11:27:04.152Z,38.90
2023-07-06T11:28:07.910Z,37.40
2023-07-06T11:30:04.274Z,37.60
2023-07-06T11:31:03.878Z,37.90
2023-07-06T11:32:07.594Z,36.90
2023-07-06T11:33:08.056Z,37.20
2023-07-06T11:34:03.521Z,37.70
2023-07-06T11:35:04.154Z,36.50
2023-07-06T11:36:03.821Z,35.80
2023-07-06T11:37:04.534Z,36.20
2023-07-06T11:39:07.934Z,37.00
2023-07-06T11:41:04.183Z,36.70
2023-07-06T11:43:07.586Z,38.60
2023-07-06T11:44:11.824Z,38.10
2023-07-06T11:46:07.811Z,37.70
2023-07-06T11:47:09.644Z,35.50
2023-07-06T11:48:04.227Z,37.40
2023-07-06T11:49:04.261Z,36.70
2023-07-06T11:50:08.882Z,36.80
2023-07-06T11:52:04.115Z,37.60
2023-07-06T11:53:03.661Z,37.30
2023-07-06T11:54:04.329Z,37.60
2023-07-06T11:55:03.895Z,37.00
2023-07-06T11:56:08.612Z,37.60
2023-07-06T11:57:09.268Z,36.50
2023-07-06T11:59:07.931Z,37.10
2023-07-06T12:01:04.243Z,37.70
2023-07-06T12:02:03.930Z,37.70
2023-07-06T12:03:07.682Z,38.80
2023-07-06T12:04:09.288Z,38.10
2023-07-06T12:05:04.092Z,38.30
2023-07-06T12:06:03.717Z,37.50
2023-07-06T12:07:04.600Z,37.00
2023-07-06T12:09:04.185Z,37.70
2023-07-06T12:10:10.665Z,38.10
2023-07-06T12:14:04.447Z,35.80
2023-07-06T12:15:04.168Z,36.30
2023-07-06T12:16:07.913Z,35.40
2023-07-06T12:17:04.453Z,34.10
2023-07-06T12:18:04.742Z,36.20
2023-07-06T12:19:07.950Z,36.50
2023-07-06T12:21:04.272Z,36.50
2023-07-06T12:22:03.961Z,37.00
2023-07-06T12:23:04.114Z,35.80
2023-07-06T12:24:03.701Z,36.70
2023-07-06T12:25:07.981Z,36.20
2023-07-06T12:27:07.942Z,37.50
2023-07-06T12:28:09.516Z,35.70
2023-07-06T12:29:07.836Z,35.10
2023-07-06T12:31:11.934Z,35.80
2023-07-06T12:32:07.493Z,35.20
2023-07-06T12:33:09.188Z,35.30
2023-07-06T12:34:03.700Z,35.30
2023-07-06T12:35:04.335Z,35.60
2023-07-06T12:36:07.945Z,38.00
2023-07-06T12:38:09.343Z,35.90
2023-07-06T12:39:11.559Z,35.80
2023-07-06T12:41:04.651Z,35.80
2023-07-06T12:42:08.189Z,35.60
2023-07-06T12:43:07.840Z,35.80
2023-07-06T12:44:04.320Z,35.60
2023-07-06T12:45:10.032Z,35.20
2023-07-06T12:46:03.679Z,35.20
2023-07-06T12:47:08.020Z,35.30
2023-07-06T12:48:03.590Z,35.30
2023-07-06T12:49:07.947Z,36.20
2023-07-06T12:51:04.148Z,36.50
2023-07-06T12:52:03.950Z,35.50
2023-07-06T12:53:07.686Z,39.30
2023-07-06T12:55:04.220Z,39.30
2023-07-06T12:57:03.697Z,39.10
2023-07-06T12:58:09.463Z,37.50
2023-07-06T12:59:04.007Z,37.60
2023-07-06T13:00:03.640Z,39.90
2023-07-06T13:01:04.445Z,37.20
2023-07-06T13:02:04.281Z,35.70
2023-07-06T13:04:03.578Z,37.10
2023-07-06T13:05:24.536Z,35.60
2023-07-06T13:08:11.946Z,36.10
2023-07-06T13:09:03.538Z,36.30
2023-07-06T13:10:04.387Z,36.70
2023-07-06T13:11:07.977Z,36.40
2023-07-06T13:13:04.311Z,34.90
2023-07-06T13:14:08.086Z,34.10
2023-07-06T13:15:03.666Z,34.00
2023-07-06T13:16:04.327Z,35.00
2023-07-06T13:17:08.124Z,35.50
2023-07-06T13:18:07.883Z,37.20
2023-07-06T13:19:04.442Z,37.80
2023-07-06T13:20:08.004Z,36.00
2023-07-06T13:21:08.563Z,36.90
2023-07-06T13:22:09.143Z,36.90
2023-07-06T13:24:07.987Z,36.80
2023-07-06T13:26:04.091Z,37.70
2023-07-06T13:28:04.491Z,38.70
2023-07-06T13:30:03.954Z,38.20
2023-07-06T13:32:04.408Z,39.60
2023-07-06T13:33:04.327Z,41.80
2023-07-06T13:34:08.032Z,40.90
2023-07-06T13:36:04.206Z,42.50
2023-07-06T13:37:07.736Z,43.70
2023-07-06T13:39:03.630Z,38.50
2023-07-06T13:40:04.243Z,39.70
2023-07-06T13:41:03.859Z,39.40
2023-07-06T13:42:03.557Z,38.20
2023-07-06T13:43:07.989Z,34.10
2023-07-06T13:44:07.500Z,33.20
2023-07-06T13:45:08.062Z,37.60
2023-07-06T13:46:07.767Z,38.10
2023-07-06T13:47:04.333Z,35.10
2023-07-06T13:48:08.057Z,38.20
2023-07-06T13:49:03.621Z,36.80
2023-07-06T13:50:08.424Z,39.00
2023-07-06T13:51:08.026Z,38.00
2023-07-06T13:52:07.547Z,38.50
2023-07-06T13:53:04.147Z,36.60
2023-07-06T13:54:03.886Z,36.30
2023-07-06T13:55:08.674Z,35.10
2023-07-06T13:56:16.010Z,34.70
2023-07-06T13:57:03.735Z,35.10
2023-07-06T13:58:04.344Z,36.90
2023-07-06T13:59:03.973Z,36.20
2023-07-06T14:00:03.652Z,36.30
2023-07-06T14:01:04.365Z,36.40
2023-07-06T14:02:04.631Z,36.40
2023-07-06T14:03:04.489Z,36.70
2023-07-06T14:04:04.766Z,38.00
2023-07-06T14:05:04.176Z,37.30
2023-07-06T14:06:03.798Z,35.90
2023-07-06T14:07:04.461Z,38.00
2023-07-06T14:08:04.159Z,36.80
2023-07-06T14:09:03.815Z,35.80
2023-07-06T14:10:08.095Z,34.70
2023-07-06T14:12:04.227Z,35.20
2023-07-06T14:13:09.079Z,33.40
2023-07-06T14:15:09.365Z,34.40
2023-07-06T14:17:08.158Z,34.20
2023-07-06T14:18:07.819Z,34.80
2023-07-06T14:19:08.077Z,35.00
2023-07-06T14:20:04.265Z,34.60
2023-07-06T14:21:08.057Z,35.70
2023-07-06T14:22:03.535Z,35.50
2023-07-06T14:23:04.227Z,35.00
2023-07-06T14:25:03.616Z,35.30
2023-07-06T14:26:08.247Z,34.90
2023-07-06T14:27:03.800Z,35.40
2023-07-06T14:28:08.049Z,36.90
2023-07-06T14:29:07.618Z,36.70
2023-07-06T14:31:04.416Z,37.30
2023-07-06T14:32:09.354Z,36.50
2023-07-06T14:34:07.520Z,36.70
2023-07-06T14:35:08.144Z,37.00
2023-07-06T14:37:04.438Z,36.90
2023-07-06T14:38:04.127Z,37.20
2023-07-06T14:40:04.413Z,36.70
2023-07-06T14:41:04.032Z,36.70
2023-07-06T14:42:07.617Z,36.40
2023-07-06T14:43:09.162Z,36.60
2023-07-06T14:44:07.907Z,36.60
2023-07-06T14:45:04.421Z,37.10
2023-07-06T14:46:08.191Z,37.20
2023-07-06T14:48:08.286Z,36.50
2023-07-06T14:49:03.849Z,36.80
2023-07-06T14:50:08.096Z,35.80
2023-07-06T14:52:08.092Z,36.90
2023-07-06T14:53:07.590Z,36.80
2023-07-06T14:55:07.929Z,36.30
2023-07-06T14:56:03.503Z,35.40
2023-07-06T14:57:08.062Z,36.20
2023-07-06T14:59:04.209Z,36.50
2023-07-06T15:00:07.870Z,36.60
2023-07-06T15:01:08.217Z,36.90
2023-07-06T15:03:04.591Z,36.50
2023-07-06T15:04:08.258Z,36.50
2023-07-06T15:05:07.878Z,36.50
2023-07-06T15:06:08.076Z,36.80
2023-07-06T15:07:07.569Z,36.90
2023-07-06T15:08:12.072Z,37.00
2023-07-06T15:10:04.272Z,36.60
2023-07-06T15:11:04.034Z,37.20
2023-07-06T15:12:08.105Z,37.60
2023-07-06T15:14:08.163Z,37.70
2023-07-06T15:16:03.963Z,37.40
2023-07-06T15:17:03.891Z,36.90
2023-07-06T15:18:03.711Z,37.50
2023-07-06T15:19:04.408Z,37.50
2023-07-06T15:20:04.135Z,37.30
2023-07-06T15:21:08.042Z,36.40
2023-07-06T15:22:03.498Z,36.60
2023-07-06T15:23:09.305Z,36.20
2023-07-06T15:24:08.875Z,36.10
2023-07-06T15:25:09.569Z,36.30
2023-07-06T15:27:07.842Z,36.30
2023-07-06T15:28:08.077Z,36.60
2023-07-06T15:29:07.655Z,36.60
2023-07-06T15:30:04.195Z,36.30
2023-07-06T15:31:07.844Z,36.50
2023-07-06T15:32:04.363Z,36.50
2023-07-06T15:34:03.625Z,37.00
2023-07-06T15:35:04.315Z,36.70
2023-07-06T15:37:04.479Z,37.00
2023-07-06T15:38:04.112Z,37.50
2023-07-06T15:40:06.098Z,36.40
2023-07-06T15:41:04.064Z,36.70
2023-07-06T15:42:07.772Z,36.60
2023-07-06T15:44:03.915Z,36.80
2023-07-06T15:45:07.582Z,37.30
2023-07-06T15:46:09.481Z,37.00
2023-07-06T15:48:03.808Z,37.00
2023-07-06T15:49:04.233Z,37.20
2023-07-06T15:50:08.903Z,37.20
2023-07-06T15:52:03.453Z,35.50
2023-07-06T15:53:04.144Z,36.80
2023-07-06T15:54:07.908Z,36.30
2023-07-06T15:55:04.368Z,36.20
2023-07-06T15:56:04.573Z,36.00
2023-07-06T15:57:04.247Z,36.10
2023-07-06T15:58:07.992Z,36.60
2023-07-06T15:59:06.011Z,36.40
2023-07-06T16:00:11.869Z,36.40
2023-07-06T16:02:04.607Z,36.70
2023-07-06T16:03:04.884Z,36.50